sensor_id;sensor_type;location;lat;lon;timestamp;P1;durP1;ratioP1;P2;durP2;ratioP2
65879;SDS011;52661;51.364;6.054;2023-10-19T00:00:37;6.75;;;2.30;;
65879;SDS011;52661;51.364;6.054;2023-10-19T00:03:06;9.80;;;3.45;;
65879;SDS011;52661;51.364;6.054;2023-10-19T00:05:34;7.57;;;2.58;;
65879;SDS011;52661;51.364;6.054;2023-10-19T00:10:25;6.60;;;3.05;;
65879;SDS011;52661;51.364;6.054;2023-10-19T00:12:54;10.82;;;2.63;;
65879;SDS011;52661;51.364;6.054;2023-10-19T00:15:26;6.90;;;2.67;;
65879;SDS011;52661;51.364;6.054;2023-10-19T00:17:56;6.47;;;2.97;;
65879;SDS011;52661;51.364;6.054;2023-10-19T00:20:24;6.18;;;2.85;;
65879;SDS011;52661;51.364;6.054;2023-10-19T00:22:54;12.57;;;3.45;;
65879;SDS011;52661;51.364;6.054;2023-10-19T00:25:20;7.75;;;3.58;;
65879;SDS011;52661;51.364;6.054;2023-10-19T00:30:13;6.85;;;3.10;;
65879;SDS011;52661;51.364;6.054;2023-10-19T00:32:43;6.63;;;2.40;;
65879;SDS011;52661;51.364;6.054;2023-10-19T00:35:08;5.87;;;2.67;;
65879;SDS011;52661;51.364;6.054;2023-10-19T00:37:52;7.90;;;2.95;;
65879;SDS011;52661;51.364;6.054;2023-10-19T00:40:17;6.40;;;2.70;;
65879;SDS011;52661;51.364;6.054;2023-10-19T00:42:58;7.80;;;3.10;;
65879;SDS011;52661;51.364;6.054;2023-10-19T00:45:25;7.03;;;3.30;;
65879;SDS011;52661;51.364;6.054;2023-10-19T00:47:51;6.90;;;2.72;;
65879;SDS011;52661;51.364;6.054;2023-10-19T00:50:18;5.47;;;2.45;;
65879;SDS011;52661;51.364;6.054;2023-10-19T00:52:47;5.88;;;2.83;;
65879;SDS011;52661;51.364;6.054;2023-10-19T00:55:15;6.15;;;2.97;;
65879;SDS011;52661;51.364;6.054;2023-10-19T00:57:40;8.68;;;3.28;;
65879;SDS011;52661;51.364;6.054;2023-10-19T01:00:07;7.43;;;3.05;;
65879;SDS011;52661;51.364;6.054;2023-10-19T01:02:47;6.60;;;2.40;;
65879;SDS011;52661;51.364;6.054;2023-10-19T01:05:13;4.90;;;2.50;;
65879;SDS011;52661;51.364;6.054;2023-10-19T01:07:38;7.38;;;3.25;;
65879;SDS011;52661;51.364;6.054;2023-10-19T01:10:04;8.35;;;3.45;;
65879;SDS011;52661;51.364;6.054;2023-10-19T01:12:31;7.60;;;2.50;;
65879;SDS011;52661;51.364;6.054;2023-10-19T01:17:40;5.47;;;2.75;;
65879;SDS011;52661;51.364;6.054;2023-10-19T01:22:51;8.25;;;3.35;;
65879;SDS011;52661;51.364;6.054;2023-10-19T01:25:32;5.68;;;2.53;;
65879;SDS011;52661;51.364;6.054;2023-10-19T01:28:01;5.78;;;2.75;;
65879;SDS011;52661;51.364;6.054;2023-10-19T01:30:32;8.98;;;2.70;;
65879;SDS011;52661;51.364;6.054;2023-10-19T01:32:58;7.03;;;2.90;;
65879;SDS011;52661;51.364;6.054;2023-10-19T01:35:23;6.50;;;2.67;;
65879;SDS011;52661;51.364;6.054;2023-10-19T01:37:48;4.93;;;2.30;;
65879;SDS011;52661;51.364;6.054;2023-10-19T01:40:14;6.03;;;2.97;;
65879;SDS011;52661;51.364;6.054;2023-10-19T01:42:45;5.50;;;2.97;;
65879;SDS011;52661;51.364;6.054;2023-10-19T01:45:10;5.73;;;2.57;;
65879;SDS011;52661;51.364;6.054;2023-10-19T01:47:36;5.28;;;2.85;;
65879;SDS011;52661;51.364;6.054;2023-10-19T01:50:01;6.10;;;2.83;;
65879;SDS011;52661;51.364;6.054;2023-10-19T01:52:27;5.78;;;2.45;;
65879;SDS011;52661;51.364;6.054;2023-10-19T01:54:53;5.13;;;2.07;;
65879;SDS011;52661;51.364;6.054;2023-10-19T01:57:24;6.90;;;3.20;;
65879;SDS011;52661;51.364;6.054;2023-10-19T01:59:50;6.10;;;2.50;;
65879;SDS011;52661;51.364;6.054;2023-10-19T02:02:16;5.93;;;2.07;;
65879;SDS011;52661;51.364;6.054;2023-10-19T02:04:41;7.25;;;2.97;;
65879;SDS011;52661;51.364;6.054;2023-10-19T02:07:07;5.55;;;2.85;;
65879;SDS011;52661;51.364;6.054;2023-10-19T02:09:37;5.68;;;2.30;;
65879;SDS011;52661;51.364;6.054;2023-10-19T02:12:04;5.00;;;2.67;;
65879;SDS011;52661;51.364;6.054;2023-10-19T02:14:31;6.38;;;2.58;;
65879;SDS011;52661;51.364;6.054;2023-10-19T02:16:58;6.78;;;2.60;;
65879;SDS011;52661;51.364;6.054;2023-10-19T02:19:29;6.75;;;2.60;;
65879;SDS011;52661;51.364;6.054;2023-10-19T02:21:58;6.10;;;2.55;;
65879;SDS011;52661;51.364;6.054;2023-10-19T02:24:24;6.05;;;2.60;;
65879;SDS011;52661;51.364;6.054;2023-10-19T02:26:51;5.30;;;2.00;;
65879;SDS011;52661;51.364;6.054;2023-10-19T02:29:16;5.80;;;2.60;;
65879;SDS011;52661;51.364;6.054;2023-10-19T02:31:43;6.25;;;2.22;;
65879;SDS011;52661;51.364;6.054;2023-10-19T02:34:09;3.93;;;2.13;;
65879;SDS011;52661;51.364;6.054;2023-10-19T02:36:35;5.65;;;2.50;;
65879;SDS011;52661;51.364;6.054;2023-10-19T02:39:03;5.57;;;2.00;;
65879;SDS011;52661;51.364;6.054;2023-10-19T02:41:32;4.20;;;2.08;;
65879;SDS011;52661;51.364;6.054;2023-10-19T02:46:37;5.25;;;1.73;;
65879;SDS011;52661;51.364;6.054;2023-10-19T02:49:04;4.38;;;1.27;;
65879;SDS011;52661;51.364;6.054;2023-10-19T02:51:36;3.95;;;1.13;;
65879;SDS011;52661;51.364;6.054;2023-10-19T02:54:02;2.30;;;0.68;;
65879;SDS011;52661;51.364;6.054;2023-10-19T02:56:27;2.20;;;0.68;;
65879;SDS011;52661;51.364;6.054;2023-10-19T02:58:55;2.80;;;0.82;;
65879;SDS011;52661;51.364;6.054;2023-10-19T03:01:26;2.33;;;0.30;;
65879;SDS011;52661;51.364;6.054;2023-10-19T03:06:23;2.88;;;0.30;;
65879;SDS011;52661;51.364;6.054;2023-10-19T03:08:48;2.00;;;0.50;;
65879;SDS011;52661;51.364;6.054;2023-10-19T03:11:20;3.13;;;0.75;;
65879;SDS011;52661;51.364;6.054;2023-10-19T03:13:45;2.57;;;0.40;;
65879;SDS011;52661;51.364;6.054;2023-10-19T03:16:15;1.25;;;0.43;;
65879;SDS011;52661;51.364;6.054;2023-10-19T03:18:40;2.33;;;0.63;;
65879;SDS011;52661;51.364;6.054;2023-10-19T03:21:05;1.80;;;0.40;;
65879;SDS011;52661;51.364;6.054;2023-10-19T03:23:31;1.80;;;0.20;;
65879;SDS011;52661;51.364;6.054;2023-10-19T03:25:59;1.27;;;0.35;;
65879;SDS011;52661;51.364;6.054;2023-10-19T03:28:43;4.32;;;0.22;;
65879;SDS011;52661;51.364;6.054;2023-10-19T03:31:09;1.73;;;0.35;;
65879;SDS011;52661;51.364;6.054;2023-10-19T03:33:42;1.92;;;0.43;;
65879;SDS011;52661;51.364;6.054;2023-10-19T03:36:08;1.48;;;0.30;;
65879;SDS011;52661;51.364;6.054;2023-10-19T03:38:38;3.70;;;0.40;;
65879;SDS011;52661;51.364;6.054;2023-10-19T03:41:05;1.23;;;0.40;;
65879;SDS011;52661;51.364;6.054;2023-10-19T03:43:32;1.85;;;0.22;;
65879;SDS011;52661;51.364;6.054;2023-10-19T03:45:57;0.82;;;0.22;;
65879;SDS011;52661;51.364;6.054;2023-10-19T03:48:24;4.25;;;0.22;;
65879;SDS011;52661;51.364;6.054;2023-10-19T03:53:18;2.13;;;0.35;;
65879;SDS011;52661;51.364;6.054;2023-10-19T03:55:43;3.73;;;0.50;;
65879;SDS011;52661;51.364;6.054;2023-10-19T03:58:09;1.17;;;0.40;;
65879;SDS011;52661;51.364;6.054;2023-10-19T04:00:34;2.30;;;0.30;;
65879;SDS011;52661;51.364;6.054;2023-10-19T04:02:59;2.63;;;0.30;;
65879;SDS011;52661;51.364;6.054;2023-10-19T04:05:24;3.80;;;0.67;;
65879;SDS011;52661;51.364;6.054;2023-10-19T04:07:51;1.00;;;0.35;;
65879;SDS011;52661;51.364;6.054;2023-10-19T04:10:20;3.40;;;0.20;;
65879;SDS011;52661;51.364;6.054;2023-10-19T04:13:06;1.42;;;0.22;;
65879;SDS011;52661;51.364;6.054;2023-10-19T04:15:35;2.40;;;0.43;;
65879;SDS011;52661;51.364;6.054;2023-10-19T04:18:00;3.83;;;0.50;;
65879;SDS011;52661;51.364;6.054;2023-10-19T04:20:26;3.75;;;0.45;;
65879;SDS011;52661;51.364;6.054;2023-10-19T04:22:55;4.75;;;0.35;;
65879;SDS011;52661;51.364;6.054;2023-10-19T04:25:20;2.05;;;0.28;;
65879;SDS011;52661;51.364;6.054;2023-10-19T04:27:46;5.05;;;0.35;;
65879;SDS011;52661;51.364;6.054;2023-10-19T04:30:12;3.58;;;0.25;;
65879;SDS011;52661;51.364;6.054;2023-10-19T04:32:45;1.48;;;0.50;;
65879;SDS011;52661;51.364;6.054;2023-10-19T04:35:10;1.60;;;0.28;;
65879;SDS011;52661;51.364;6.054;2023-10-19T04:37:36;2.80;;;0.43;;
65879;SDS011;52661;51.364;6.054;2023-10-19T04:40:02;3.03;;;0.32;;
65879;SDS011;52661;51.364;6.054;2023-10-19T04:42:27;3.33;;;0.47;;
65879;SDS011;52661;51.364;6.054;2023-10-19T04:44:56;3.80;;;0.30;;
65879;SDS011;52661;51.364;6.054;2023-10-19T04:47:21;2.90;;;0.43;;
65879;SDS011;52661;51.364;6.054;2023-10-19T04:49:47;2.85;;;0.22;;
65879;SDS011;52661;51.364;6.054;2023-10-19T04:52:12;1.17;;;0.20;;
65879;SDS011;52661;51.364;6.054;2023-10-19T04:54:37;2.10;;;0.30;;
65879;SDS011;52661;51.364;6.054;2023-10-19T04:57:02;2.57;;;0.40;;
65879;SDS011;52661;51.364;6.054;2023-10-19T04:59:28;2.50;;;0.43;;
65879;SDS011;52661;51.364;6.054;2023-10-19T05:01:58;2.05;;;0.20;;
65879;SDS011;52661;51.364;6.054;2023-10-19T05:04:23;2.97;;;0.55;;
65879;SDS011;52661;51.364;6.054;2023-10-19T05:06:49;2.28;;;0.43;;
65879;SDS011;52661;51.364;6.054;2023-10-19T05:09:14;2.67;;;0.60;;
65879;SDS011;52661;51.364;6.054;2023-10-19T05:11:40;1.55;;;0.22;;
65879;SDS011;52661;51.364;6.054;2023-10-19T05:14:05;3.15;;;0.40;;
65879;SDS011;52661;51.364;6.054;2023-10-19T05:16:30;1.90;;;0.20;;
65879;SDS011;52661;51.364;6.054;2023-10-19T05:18:56;4.00;;;0.52;;
65879;SDS011;52661;51.364;6.054;2023-10-19T05:21:21;5.67;;;0.83;;
65879;SDS011;52661;51.364;6.054;2023-10-19T05:23:46;1.23;;;0.20;;
65879;SDS011;52661;51.364;6.054;2023-10-19T05:26:12;1.85;;;0.57;;
65879;SDS011;52661;51.364;6.054;2023-10-19T05:28:39;1.60;;;0.52;;
65879;SDS011;52661;51.364;6.054;2023-10-19T05:31:04;3.37;;;0.70;;
65879;SDS011;52661;51.364;6.054;2023-10-19T05:33:30;2.73;;;0.47;;
65879;SDS011;52661;51.364;6.054;2023-10-19T05:35:55;2.20;;;0.17;;
65879;SDS011;52661;51.364;6.054;2023-10-19T05:38:20;4.50;;;0.73;;
65879;SDS011;52661;51.364;6.054;2023-10-19T05:40:47;6.43;;;0.43;;
65879;SDS011;52661;51.364;6.054;2023-10-19T05:43:14;2.88;;;0.40;;
65879;SDS011;52661;51.364;6.054;2023-10-19T05:45:40;3.75;;;0.43;;
65879;SDS011;52661;51.364;6.054;2023-10-19T05:48:06;2.23;;;0.53;;
65879;SDS011;52661;51.364;6.054;2023-10-19T05:50:34;1.95;;;0.40;;
65879;SDS011;52661;51.364;6.054;2023-10-19T05:53:00;3.50;;;0.52;;
65879;SDS011;52661;51.364;6.054;2023-10-19T05:55:25;2.80;;;0.45;;
65879;SDS011;52661;51.364;6.054;2023-10-19T05:57:50;2.40;;;0.43;;
65879;SDS011;52661;51.364;6.054;2023-10-19T06:00:16;5.17;;;0.43;;
65879;SDS011;52661;51.364;6.054;2023-10-19T06:02:43;5.68;;;0.45;;
65879;SDS011;52661;51.364;6.054;2023-10-19T06:05:14;2.25;;;0.38;;
65879;SDS011;52661;51.364;6.054;2023-10-19T06:07:45;7.22;;;0.40;;
65879;SDS011;52661;51.364;6.054;2023-10-19T06:10:12;3.38;;;0.30;;
65879;SDS011;52661;51.364;6.054;2023-10-19T06:12:41;3.90;;;0.45;;
65879;SDS011;52661;51.364;6.054;2023-10-19T06:15:07;18.02;;;1.83;;
65879;SDS011;52661;51.364;6.054;2023-10-19T06:17:33;3.22;;;0.52;;
65879;SDS011;52661;51.364;6.054;2023-10-19T06:19:58;2.23;;;0.20;;
65879;SDS011;52661;51.364;6.054;2023-10-19T06:22:23;2.07;;;0.30;;
65879;SDS011;52661;51.364;6.054;2023-10-19T06:24:48;4.00;;;0.57;;
65879;SDS011;52661;51.364;6.054;2023-10-19T06:27:13;3.37;;;0.30;;
65879;SDS011;52661;51.364;6.054;2023-10-19T06:29:39;1.97;;;0.30;;
65879;SDS011;52661;51.364;6.054;2023-10-19T06:32:04;2.50;;;0.33;;
65879;SDS011;52661;51.364;6.054;2023-10-19T06:34:29;3.07;;;0.20;;
65879;SDS011;52661;51.364;6.054;2023-10-19T06:36:54;3.75;;;0.60;;
65879;SDS011;52661;51.364;6.054;2023-10-19T06:39:20;4.73;;;0.33;;
65879;SDS011;52661;51.364;6.054;2023-10-19T06:41:46;4.78;;;0.55;;
65879;SDS011;52661;51.364;6.054;2023-10-19T06:44:12;2.60;;;0.40;;
65879;SDS011;52661;51.364;6.054;2023-10-19T06:46:37;3.67;;;0.73;;
65879;SDS011;52661;51.364;6.054;2023-10-19T06:49:04;3.33;;;0.43;;
65879;SDS011;52661;51.364;6.054;2023-10-19T06:51:29;2.47;;;0.57;;
65879;SDS011;52661;51.364;6.054;2023-10-19T06:53:54;2.93;;;0.77;;
65879;SDS011;52661;51.364;6.054;2023-10-19T06:56:20;3.22;;;0.32;;
65879;SDS011;52661;51.364;6.054;2023-10-19T06:58:46;4.20;;;0.87;;
65879;SDS011;52661;51.364;6.054;2023-10-19T07:01:14;3.90;;;0.68;;
65879;SDS011;52661;51.364;6.054;2023-10-19T07:03:42;2.75;;;0.57;;
65879;SDS011;52661;51.364;6.054;2023-10-19T07:06:08;4.57;;;0.47;;
65879;SDS011;52661;51.364;6.054;2023-10-19T07:08:38;2.35;;;0.65;;
65879;SDS011;52661;51.364;6.054;2023-10-19T07:11:03;4.40;;;0.83;;
65879;SDS011;52661;51.364;6.054;2023-10-19T07:13:28;1.33;;;0.40;;
65879;SDS011;52661;51.364;6.054;2023-10-19T07:15:57;2.03;;;0.50;;
65879;SDS011;52661;51.364;6.054;2023-10-19T07:18:23;1.75;;;0.57;;
65879;SDS011;52661;51.364;6.054;2023-10-19T07:20:48;3.47;;;0.77;;
65879;SDS011;52661;51.364;6.054;2023-10-19T07:23:15;2.20;;;0.30;;
65879;SDS011;52661;51.364;6.054;2023-10-19T07:25:45;4.10;;;0.82;;
65879;SDS011;52661;51.364;6.054;2023-10-19T07:28:12;2.92;;;0.55;;
65879;SDS011;52661;51.364;6.054;2023-10-19T07:30:39;3.05;;;0.45;;
65879;SDS011;52661;51.364;6.054;2023-10-19T07:33:05;3.00;;;0.63;;
65879;SDS011;52661;51.364;6.054;2023-10-19T07:35:33;7.90;;;0.70;;
65879;SDS011;52661;51.364;6.054;2023-10-19T07:37:59;3.00;;;0.73;;
65879;SDS011;52661;51.364;6.054;2023-10-19T07:40:24;5.23;;;0.57;;
65879;SDS011;52661;51.364;6.054;2023-10-19T07:42:49;3.43;;;0.93;;
65879;SDS011;52661;51.364;6.054;2023-10-19T07:45:16;3.75;;;0.55;;
65879;SDS011;52661;51.364;6.054;2023-10-19T07:47:42;2.42;;;0.32;;
65879;SDS011;52661;51.364;6.054;2023-10-19T07:50:08;2.80;;;0.60;;
65879;SDS011;52661;51.364;6.054;2023-10-19T07:52:37;8.55;;;0.95;;
65879;SDS011;52661;51.364;6.054;2023-10-19T07:55:04;2.75;;;0.73;;
65879;SDS011;52661;51.364;6.054;2023-10-19T07:57:29;3.38;;;0.40;;
65879;SDS011;52661;51.364;6.054;2023-10-19T07:59:54;3.47;;;0.73;;
65879;SDS011;52661;51.364;6.054;2023-10-19T08:02:21;3.33;;;0.50;;
65879;SDS011;52661;51.364;6.054;2023-10-19T08:04:47;2.15;;;0.63;;
65879;SDS011;52661;51.364;6.054;2023-10-19T08:07:13;2.73;;;0.73;;
65879;SDS011;52661;51.364;6.054;2023-10-19T08:09:38;1.37;;;0.37;;
65879;SDS011;52661;51.364;6.054;2023-10-19T08:12:03;5.03;;;1.00;;
65879;SDS011;52661;51.364;6.054;2023-10-19T08:14:30;3.67;;;0.68;;
65879;SDS011;52661;51.364;6.054;2023-10-19T08:16:55;3.80;;;0.50;;
65879;SDS011;52661;51.364;6.054;2023-10-19T08:19:21;3.72;;;0.63;;
65879;SDS011;52661;51.364;6.054;2023-10-19T08:21:47;4.53;;;0.63;;
65879;SDS011;52661;51.364;6.054;2023-10-19T08:24:12;3.67;;;0.77;;
65879;SDS011;52661;51.364;6.054;2023-10-19T08:26:41;2.97;;;0.65;;
65879;SDS011;52661;51.364;6.054;2023-10-19T08:29:06;8.10;;;0.75;;
65879;SDS011;52661;51.364;6.054;2023-10-19T08:31:37;1.98;;;0.35;;
65879;SDS011;52661;51.364;6.054;2023-10-19T08:34:04;4.72;;;0.75;;
65879;SDS011;52661;51.364;6.054;2023-10-19T08:36:30;2.35;;;0.63;;
65879;SDS011;52661;51.364;6.054;2023-10-19T08:38:56;5.35;;;0.52;;
65879;SDS011;52661;51.364;6.054;2023-10-19T08:41:21;2.50;;;0.43;;
65879;SDS011;52661;51.364;6.054;2023-10-19T08:43:46;3.90;;;0.50;;
65879;SDS011;52661;51.364;6.054;2023-10-19T08:46:13;3.28;;;0.45;;
65879;SDS011;52661;51.364;6.054;2023-10-19T08:48:39;4.68;;;0.65;;
65879;SDS011;52661;51.364;6.054;2023-10-19T08:51:09;4.85;;;0.73;;
65879;SDS011;52661;51.364;6.054;2023-10-19T08:53:36;3.90;;;0.70;;
65879;SDS011;52661;51.364;6.054;2023-10-19T08:56:05;3.35;;;0.57;;
65879;SDS011;52661;51.364;6.054;2023-10-19T08:58:31;9.50;;;0.93;;
65879;SDS011;52661;51.364;6.054;2023-10-19T09:00:57;4.10;;;0.73;;
65879;SDS011;52661;51.364;6.054;2023-10-19T09:03:23;4.37;;;0.40;;
65879;SDS011;52661;51.364;6.054;2023-10-19T09:05:49;4.82;;;0.85;;
65879;SDS011;52661;51.364;6.054;2023-10-19T09:08:18;2.40;;;0.47;;
65879;SDS011;52661;51.364;6.054;2023-10-19T09:10:45;3.75;;;0.98;;
65879;SDS011;52661;51.364;6.054;2023-10-19T09:13:10;6.25;;;0.55;;
65879;SDS011;52661;51.364;6.054;2023-10-19T09:15:38;4.13;;;0.55;;
65879;SDS011;52661;51.364;6.054;2023-10-19T09:18:19;5.85;;;0.70;;
65879;SDS011;52661;51.364;6.054;2023-10-19T09:20:46;4.03;;;0.73;;
65879;SDS011;52661;51.364;6.054;2023-10-19T09:23:31;2.92;;;0.88;;
65879;SDS011;52661;51.364;6.054;2023-10-19T09:25:58;1.47;;;0.23;;
65879;SDS011;52661;51.364;6.054;2023-10-19T09:28:25;3.47;;;0.73;;
65879;SDS011;52661;51.364;6.054;2023-10-19T09:30:51;4.90;;;1.07;;
65879;SDS011;52661;51.364;6.054;2023-10-19T09:33:16;2.97;;;0.75;;
65879;SDS011;52661;51.364;6.054;2023-10-19T09:35:43;5.10;;;0.57;;
65879;SDS011;52661;51.364;6.054;2023-10-19T09:38:10;5.43;;;0.57;;
65879;SDS011;52661;51.364;6.054;2023-10-19T09:40:36;6.45;;;1.10;;
65879;SDS011;52661;51.364;6.054;2023-10-19T09:43:04;3.80;;;0.60;;
65879;SDS011;52661;51.364;6.054;2023-10-19T09:45:31;6.53;;;0.70;;
65879;SDS011;52661;51.364;6.054;2023-10-19T09:47:57;9.55;;;0.73;;
65879;SDS011;52661;51.364;6.054;2023-10-19T09:50:26;7.68;;;0.90;;
65879;SDS011;52661;51.364;6.054;2023-10-19T09:52:51;6.97;;;0.73;;
65879;SDS011;52661;51.364;6.054;2023-10-19T09:55:22;2.87;;;0.50;;
65879;SDS011;52661;51.364;6.054;2023-10-19T10:00:16;5.20;;;0.45;;
65879;SDS011;52661;51.364;6.054;2023-10-19T10:02:48;7.43;;;0.52;;
65879;SDS011;52661;51.364;6.054;2023-10-19T10:08:27;5.63;;;0.75;;
65879;SDS011;52661;51.364;6.054;2023-10-19T10:10:46;5.65;;;0.75;;
65879;SDS011;52661;51.364;6.054;2023-10-19T10:15:49;2.42;;;0.90;;
65879;SDS011;52661;51.364;6.054;2023-10-19T10:18:15;6.03;;;0.53;;
65879;SDS011;52661;51.364;6.054;2023-10-19T10:20:40;2.90;;;0.50;;
65879;SDS011;52661;51.364;6.054;2023-10-19T10:23:15;6.50;;;0.73;;
65879;SDS011;52661;51.364;6.054;2023-10-19T10:25:41;6.68;;;0.55;;
65879;SDS011;52661;51.364;6.054;2023-10-19T10:28:06;7.57;;;1.00;;
65879;SDS011;52661;51.364;6.054;2023-10-19T10:30:34;6.85;;;1.15;;
65879;SDS011;52661;51.364;6.054;2023-10-19T10:33:00;5.20;;;0.53;;
65879;SDS011;52661;51.364;6.054;2023-10-19T10:38:06;4.82;;;0.40;;
65879;SDS011;52661;51.364;6.054;2023-10-19T10:40:43;8.25;;;1.05;;
65879;SDS011;52661;51.364;6.054;2023-10-19T10:43:08;7.38;;;0.65;;
65879;SDS011;52661;51.364;6.054;2023-10-19T10:45:35;3.92;;;0.68;;
65879;SDS011;52661;51.364;6.054;2023-10-19T10:48:00;9.47;;;1.00;;
65879;SDS011;52661;51.364;6.054;2023-10-19T10:50:26;8.77;;;1.10;;
65879;SDS011;52661;51.364;6.054;2023-10-19T10:52:53;7.43;;;0.82;;
65879;SDS011;52661;51.364;6.054;2023-10-19T10:55:22;4.93;;;0.40;;
65879;SDS011;52661;51.364;6.054;2023-10-19T10:57:49;6.03;;;0.73;;
65879;SDS011;52661;51.364;6.054;2023-10-19T11:00:14;3.75;;;0.80;;
65879;SDS011;52661;51.364;6.054;2023-10-19T11:02:45;5.10;;;0.68;;
65879;SDS011;52661;51.364;6.054;2023-10-19T11:05:15;4.85;;;0.50;;
65879;SDS011;52661;51.364;6.054;2023-10-19T11:07:41;6.07;;;0.77;;
65879;SDS011;52661;51.364;6.054;2023-10-19T11:10:07;8.70;;;0.52;;
65879;SDS011;52661;51.364;6.054;2023-10-19T11:12:34;5.38;;;0.70;;
65879;SDS011;52661;51.364;6.054;2023-10-19T11:15:00;5.82;;;0.63;;
65879;SDS011;52661;51.364;6.054;2023-10-19T11:17:26;5.67;;;0.83;;
65879;SDS011;52661;51.364;6.054;2023-10-19T11:19:57;6.15;;;0.65;;
65879;SDS011;52661;51.364;6.054;2023-10-19T11:22:23;6.00;;;0.73;;
65879;SDS011;52661;51.364;6.054;2023-10-19T11:24:54;3.97;;;0.50;;
65879;SDS011;52661;51.364;6.054;2023-10-19T11:27:23;2.95;;;0.43;;
65879;SDS011;52661;51.364;6.054;2023-10-19T11:29:58;5.22;;;0.55;;
65879;SDS011;52661;51.364;6.054;2023-10-19T11:32:24;5.65;;;1.08;;
65879;SDS011;52661;51.364;6.054;2023-10-19T11:34:53;3.33;;;0.63;;
65879;SDS011;52661;51.364;6.054;2023-10-19T11:37:19;5.38;;;0.52;;
65879;SDS011;52661;51.364;6.054;2023-10-19T11:39:44;3.20;;;0.30;;
65879;SDS011;52661;51.364;6.054;2023-10-19T11:42:10;7.50;;;0.73;;
65879;SDS011;52661;51.364;6.054;2023-10-19T11:44:35;4.63;;;0.40;;
65879;SDS011;52661;51.364;6.054;2023-10-19T11:47:01;8.13;;;0.73;;
65879;SDS011;52661;51.364;6.054;2023-10-19T11:49:27;5.38;;;0.63;;
65879;SDS011;52661;51.364;6.054;2023-10-19T11:51:52;3.50;;;0.63;;
65879;SDS011;52661;51.364;6.054;2023-10-19T11:54:17;8.40;;;0.95;;
65879;SDS011;52661;51.364;6.054;2023-10-19T11:56:43;4.57;;;0.60;;
65879;SDS011;52661;51.364;6.054;2023-10-19T11:59:09;7.40;;;0.82;;
65879;SDS011;52661;51.364;6.054;2023-10-19T12:01:37;3.58;;;0.75;;
65879;SDS011;52661;51.364;6.054;2023-10-19T12:04:03;4.68;;;0.93;;
65879;SDS011;52661;51.364;6.054;2023-10-19T12:06:30;4.88;;;0.85;;
65879;SDS011;52661;51.364;6.054;2023-10-19T12:08:56;2.53;;;0.47;;
65879;SDS011;52661;51.364;6.054;2023-10-19T12:11:24;6.38;;;1.55;;
65879;SDS011;52661;51.364;6.054;2023-10-19T12:13:49;6.40;;;1.60;;
65879;SDS011;52661;51.364;6.054;2023-10-19T12:16:14;5.97;;;1.60;;
65879;SDS011;52661;51.364;6.054;2023-10-19T12:18:46;6.97;;;1.02;;
65879;SDS011;52661;51.364;6.054;2023-10-19T12:21:13;5.63;;;1.10;;
65879;SDS011;52661;51.364;6.054;2023-10-19T12:23:39;9.30;;;1.60;;
65879;SDS011;52661;51.364;6.054;2023-10-19T12:26:05;4.90;;;1.35;;
65879;SDS011;52661;51.364;6.054;2023-10-19T12:28:36;4.53;;;1.17;;
65879;SDS011;52661;51.364;6.054;2023-10-19T12:31:03;7.10;;;1.38;;
65879;SDS011;52661;51.364;6.054;2023-10-19T12:33:28;8.30;;;1.27;;
65879;SDS011;52661;51.364;6.054;2023-10-19T12:35:53;5.90;;;1.03;;
65879;SDS011;52661;51.364;6.054;2023-10-19T12:38:21;7.70;;;1.15;;
65879;SDS011;52661;51.364;6.054;2023-10-19T12:40:47;2.20;;;0.50;;
65879;SDS011;52661;51.364;6.054;2023-10-19T12:43:16;5.45;;;1.05;;
65879;SDS011;52661;51.364;6.054;2023-10-19T12:45:43;6.40;;;0.65;;
65879;SDS011;52661;51.364;6.054;2023-10-19T12:48:09;6.50;;;1.35;;
65879;SDS011;52661;51.364;6.054;2023-10-19T12:50:36;6.07;;;1.08;;
65879;SDS011;52661;51.364;6.054;2023-10-19T12:53:02;4.28;;;1.02;;
65879;SDS011;52661;51.364;6.054;2023-10-19T12:55:27;4.35;;;0.93;;
65879;SDS011;52661;51.364;6.054;2023-10-19T12:57:53;4.67;;;0.93;;
65879;SDS011;52661;51.364;6.054;2023-10-19T13:00:18;4.85;;;0.98;;
65879;SDS011;52661;51.364;6.054;2023-10-19T13:02:50;7.45;;;1.38;;
65879;SDS011;52661;51.364;6.054;2023-10-19T13:05:16;6.13;;;1.50;;
65879;SDS011;52661;51.364;6.054;2023-10-19T13:07:46;4.85;;;1.08;;
65879;SDS011;52661;51.364;6.054;2023-10-19T13:10:11;6.43;;;1.25;;
65879;SDS011;52661;51.364;6.054;2023-10-19T13:12:37;7.70;;;1.33;;
65879;SDS011;52661;51.364;6.054;2023-10-19T13:15:03;5.97;;;1.02;;
65879;SDS011;52661;51.364;6.054;2023-10-19T13:17:28;5.82;;;0.88;;
65879;SDS011;52661;51.364;6.054;2023-10-19T13:19:53;4.67;;;0.43;;
65879;SDS011;52661;51.364;6.054;2023-10-19T13:24:46;6.73;;;0.87;;
65879;SDS011;52661;51.364;6.054;2023-10-19T13:27:12;8.15;;;1.33;;
65879;SDS011;52661;51.364;6.054;2023-10-19T13:29:37;4.70;;;1.57;;
65879;SDS011;52661;51.364;6.054;2023-10-19T13:34:30;3.40;;;0.22;;
65879;SDS011;52661;51.364;6.054;2023-10-19T13:36:55;3.20;;;0.37;;
65879;SDS011;52661;51.364;6.054;2023-10-19T13:39:21;7.78;;;1.20;;
65879;SDS011;52661;51.364;6.054;2023-10-19T13:41:50;6.55;;;1.27;;
65879;SDS011;52661;51.364;6.054;2023-10-19T13:44:15;6.10;;;1.35;;
65879;SDS011;52661;51.364;6.054;2023-10-19T13:46:43;7.72;;;1.63;;
65879;SDS011;52661;51.364;6.054;2023-10-19T13:49:10;7.43;;;1.30;;
65879;SDS011;52661;51.364;6.054;2023-10-19T13:51:35;5.40;;;1.43;;
65879;SDS011;52661;51.364;6.054;2023-10-19T13:54:01;10.13;;;1.93;;
65879;SDS011;52661;51.364;6.054;2023-10-19T13:56:26;5.32;;;1.45;;
65879;SDS011;52661;51.364;6.054;2023-10-19T13:58:51;7.05;;;1.48;;
65879;SDS011;52661;51.364;6.054;2023-10-19T14:01:17;10.43;;;1.83;;
65879;SDS011;52661;51.364;6.054;2023-10-19T14:03:43;10.23;;;1.95;;
65879;SDS011;52661;51.364;6.054;2023-10-19T14:06:15;6.90;;;0.90;;
65879;SDS011;52661;51.364;6.054;2023-10-19T14:08:41;4.53;;;0.45;;
65879;SDS011;52661;51.364;6.054;2023-10-19T14:11:06;7.43;;;1.13;;
65879;SDS011;52661;51.364;6.054;2023-10-19T14:13:33;6.93;;;1.00;;
65879;SDS011;52661;51.364;6.054;2023-10-19T14:15:58;4.93;;;0.80;;
65879;SDS011;52661;51.364;6.054;2023-10-19T14:18:23;6.20;;;0.80;;
65879;SDS011;52661;51.364;6.054;2023-10-19T14:20:48;4.97;;;1.57;;
65879;SDS011;52661;51.364;6.054;2023-10-19T14:23:14;3.40;;;0.95;;
65879;SDS011;52661;51.364;6.054;2023-10-19T14:25:39;4.07;;;1.43;;
65879;SDS011;52661;51.364;6.054;2023-10-19T14:28:05;7.82;;;1.27;;
65879;SDS011;52661;51.364;6.054;2023-10-19T14:30:32;8.30;;;1.48;;
65879;SDS011;52661;51.364;6.054;2023-10-19T14:32:57;8.75;;;1.65;;
65879;SDS011;52661;51.364;6.054;2023-10-19T14:35:23;8.37;;;2.30;;
65879;SDS011;52661;51.364;6.054;2023-10-19T14:37:50;7.97;;;1.35;;
65879;SDS011;52661;51.364;6.054;2023-10-19T14:40:17;6.35;;;1.33;;
65879;SDS011;52661;51.364;6.054;2023-10-19T14:42:44;6.30;;;1.35;;
65879;SDS011;52661;51.364;6.054;2023-10-19T14:45:13;9.93;;;1.30;;
65879;SDS011;52661;51.364;6.054;2023-10-19T14:47:45;7.85;;;1.15;;
65879;SDS011;52661;51.364;6.054;2023-10-19T14:50:11;5.57;;;0.82;;
65879;SDS011;52661;51.364;6.054;2023-10-19T14:52:40;8.90;;;1.35;;
65879;SDS011;52661;51.364;6.054;2023-10-19T14:55:05;5.95;;;1.17;;
65879;SDS011;52661;51.364;6.054;2023-10-19T14:57:32;9.75;;;1.27;;
65879;SDS011;52661;51.364;6.054;2023-10-19T14:59:57;8.13;;;1.15;;
65879;SDS011;52661;51.364;6.054;2023-10-19T15:02:29;7.07;;;1.67;;
65879;SDS011;52661;51.364;6.054;2023-10-19T15:04:54;9.77;;;1.70;;
65879;SDS011;52661;51.364;6.054;2023-10-19T15:07:21;5.95;;;1.08;;
65879;SDS011;52661;51.364;6.054;2023-10-19T15:09:46;8.40;;;1.80;;
65879;SDS011;52661;51.364;6.054;2023-10-19T15:12:12;8.60;;;1.88;;
65879;SDS011;52661;51.364;6.054;2023-10-19T15:14:39;6.28;;;1.98;;
65879;SDS011;52661;51.364;6.054;2023-10-19T15:17:04;6.60;;;1.30;;
65879;SDS011;52661;51.364;6.054;2023-10-19T15:19:30;7.30;;;1.37;;